Time;durP1;ratioP1;P1;durP2;ratioP2;P2;SDS_P1;SDS_P2;PMS_P1;PMS_P2;Temp;Humidity;BMP_temperature;BMP_pressure;BME280_temperature;BME280_humidity;BME280_pressure;Samples;Min_cycle;Max_cycle;Signal;HPM_P1;HPM_P2
2022/12/08 00:01:43;;;;;;;2.45;1.70;;;;;;;19.18;51.46;96229.22;10266093;28;20553;-56
2022/12/08 00:12:54;;;;;;;3.33;1.70;;;;;;;19.16;51.54;96224.16;10254837;28;20066;-55
2022/12/08 00:18:14;;;;;;;2.65;1.80;;;;;;;19.15;51.57;96228.00;10252331;28;20094;-56
2022/12/08 00:23:33;;;;;;;2.72;1.50;;;;;;;19.13;51.46;96235.63;10262726;28;20054;-56
2022/12/08 00:28:52;;;;;;;1.95;1.60;;;;;;;19.12;51.51;96234.06;10270927;28;20097;-55
2022/12/08 00:34:13;;;;;;;3.55;1.92;;;;;;;19.11;51.50;96227.09;10255977;28;20059;-56
2022/12/08 00:39:32;;;;;;;1.85;1.30;;;;;;;19.10;51.46;96220.09;10254704;28;20059;-57
2022/12/08 00:44:53;;;;;;;2.28;1.42;;;;;;;19.09;51.43;96215.84;10241593;28;20053;-55
2022/12/08 00:50:12;;;;;;;2.08;1.50;;;;;;;19.08;51.53;96218.88;10270903;28;20058;-56
2022/12/08 00:55:32;;;;;;;2.47;1.60;;;;;;;19.06;51.50;96211.09;10265052;28;20058;-56
2022/12/08 01:00:52;;;;;;;1.92;1.45;;;;;;;19.05;51.47;96220.34;10253596;28;20098;-56
2022/12/08 01:06:11;;;;;;;1.85;1.40;;;;;;;19.04;51.37;96223.38;10254669;28;20043;-56
2022/12/08 01:11:31;;;;;;;1.63;1.30;;;;;;;19.03;51.46;96219.06;10277097;28;20035;-56
2022/12/08 01:16:51;;;;;;;1.60;1.27;;;;;;;19.01;51.47;96227.50;10287920;28;20063;-56
2022/12/08 01:22:10;;;;;;;2.00;1.35;;;;;;;19.00;51.32;96236.72;10270697;28;20055;-57
2022/12/08 01:27:30;;;;;;;1.85;1.48;;;;;;;18.98;51.38;96230.88;10250854;28;20047;-54
2022/12/08 01:32:49;;;;;;;2.13;1.35;;;;;;;18.96;51.29;96228.50;10251173;28;20059;-56
2022/12/08 01:38:08;;;;;;;2.55;1.30;;;;;;;18.96;51.38;96233.13;10281420;28;20058;-56
2022/12/08 01:43:48;;;;;;;2.58;1.40;;;;;;;18.94;51.32;96228.06;10276058;28;20043;-56
2022/12/08 01:49:22;;;;;;;1.40;1.30;;;;;;;18.94;51.28;96224.56;10260442;28;20059;-56
2022/12/08 01:54:48;;;;;;;1.27;1.10;;;;;;;18.92;51.25;96216.03;10261082;28;20121;-56
2022/12/08 02:00:11;;;;;;;1.45;1.25;;;;;;;18.91;51.44;96206.34;10260921;28;20058;-56
2022/12/08 02:05:33;;;;;;;1.50;1.17;;;;;;;18.89;51.27;96203.97;10259365;28;20047;-43
2022/12/08 02:10:52;;;;;;;1.85;1.25;;;;;;;18.88;51.20;96202.41;10271688;28;20055;-45
2022/12/08 02:16:34;;;;;;;1.38;1.27;;;;;;;18.87;51.19;96203.50;10259514;28;20507;-45
2022/12/08 02:22:06;;;;;;;2.03;1.30;;;;;;;18.86;51.13;96195.78;10267498;28;20050;-44
2022/12/08 02:27:46;;;;;;;1.98;1.35;;;;;;;18.84;51.08;96196.09;10270784;28;20047;-44
2022/12/08 02:33:08;;;;;;;1.45;1.20;;;;;;;18.84;51.17;96198.78;10255908;28;20055;-47
2022/12/08 02:38:37;;;;;;;1.88;1.17;;;;;;;18.81;51.19;96193.28;10282828;28;20043;-44
2022/12/08 02:44:10;;;;;;;1.40;1.02;;;;;;;18.80;51.18;96186.28;10256719;28;20102;-44
2022/12/08 02:49:34;;;;;;;1.88;1.25;;;;;;;18.78;51.19;96186.63;10270888;28;20400;-44
2022/12/08 02:54:58;;;;;;;1.63;1.30;;;;;;;18.77;51.16;96175.00;10274327;28;20059;-45
2022/12/08 03:00:20;;;;;;;2.35;1.42;;;;;;;18.76;51.16;96178.06;10252313;28;20054;-43
2022/12/08 03:06:08;;;;;;;1.55;1.20;;;;;;;18.75;51.15;96171.84;10250750;28;20056;-46
2022/12/08 03:11:34;;;;;;;2.17;1.52;;;;;;;18.74;51.03;96166.81;10280228;28;20049;-43
2022/12/08 03:16:55;;;;;;;1.33;1.00;;;;;;;18.72;51.06;96164.44;10247335;28;20074;-43
2022/12/08 03:22:19;;;;;;;1.05;0.95;;;;;;;18.71;51.15;96157.47;10266376;28;20058;-44
2022/12/08 03:27:38;;;;;;;1.27;1.10;;;;;;;18.70;50.98;96153.19;10257006;28;20051;-44
2022/12/08 03:33:02;;;;;;;1.10;1.00;;;;;;;18.70;51.19;96152.38;10254907;28;20074;-45
2022/12/08 03:38:22;;;;;;;1.40;1.20;;;;;;;18.68;51.12;96149.25;10265178;28;20054;-45
2022/12/08 03:43:41;;;;;;;1.35;1.25;;;;;;;18.66;50.98;96155.00;10274515;28;20078;-45
2022/12/08 03:49:01;;;;;;;1.88;1.17;;;;;;;18.64;51.04;96146.44;10254310;28;20059;-44
2022/12/08 03:54:20;;;;;;;0.93;0.90;;;;;;;18.64;50.99;96143.75;10256962;28;20058;-45
2022/12/08 03:59:39;;;;;;;1.10;1.00;;;;;;;18.63;50.98;96142.16;10279520;28;20090;-44
2022/12/08 04:04:59;;;;;;;1.15;1.00;;;;;;;18.63;51.08;96141.38;10262405;28;20059;-46
2022/12/08 04:10:18;;;;;;;1.10;1.00;;;;;;;18.61;51.03;96136.31;10258573;28;20051;-44
2022/12/08 04:15:37;;;;;;;1.70;1.17;;;;;;;18.59;50.91;96135.84;10252846;28;20047;-44
2022/12/08 04:20:57;;;;;;;1.17;1.00;;;;;;;18.58;50.86;96139.66;10271664;28;20055;-46
2022/12/08 04:26:16;;;;;;;1.15;1.00;;;;;;;18.57;51.07;96135.41;10249803;28;20419;-43
2022/12/08 04:31:36;;;;;;;1.30;1.00;;;;;;;18.56;50.73;96136.50;10283679;28;20051;-44
2022/12/08 04:36:56;;;;;;;0.82;0.80;;;;;;;18.55;50.82;96129.56;10252105;28;20064;-45
2022/12/08 04:42:15;;;;;;;0.90;0.90;;;;;;;18.52;50.86;96122.94;10255021;28;20055;-44
2022/12/08 04:47:34;;;;;;;1.17;1.02;;;;;;;18.53;50.84;96123.72;10252835;28;20062;-44
2022/12/08 04:52:54;;;;;;;1.15;1.08;;;;;;;18.50;50.76;96116.28;10261641;28;20055;-44
2022/12/08 04:58:16;;;;;;;0.95;0.88;;;;;;;18.50;50.82;96125.16;10264724;28;20098;-45
2022/12/08 05:03:35;;;;;;;1.20;1.10;;;;;;;18.48;50.83;96118.50;10269267;28;20050;-44
2022/12/08 05:08:55;;;;;;;0.98;0.98;;;;;;;18.47;50.83;96111.56;10256602;28;20043;-44
2022/12/08 05:14:16;;;;;;;1.23;1.05;;;;;;;18.45;50.81;96109.19;10251921;28;20062;-44
2022/12/08 05:19:35;;;;;;;0.95;0.90;;;;;;;18.45;50.57;96108.41;10258466;28;20059;-44
2022/12/08 05:24:55;;;;;;;1.30;1.17;;;;;;;18.44;50.96;96102.19;10260083;28;20067;-44
2022/12/08 05:30:14;;;;;;;1.15;1.00;;;;;;;18.45;50.97;96113.81;10258443;28;20055;-46
2022/12/08 05:35:34;;;;;;;2.10;1.50;;;;;;;18.46;51.45;96109.97;10261066;28;20058;-45
2022/12/08 05:40:53;;;;;;;1.52;1.20;;;;;;;18.46;51.12;96101.88;10252976;28;20054;-43
2022/12/08 05:46:13;;;;;;;1.77;1.27;;;;;;;18.47;50.94;96101.53;10259181;28;20055;-44
2022/12/08 05:51:32;;;;;;;1.20;1.10;;;;;;;18.47;51.11;96106.94;10270102;28;20058;-44
2022/12/08 05:56:52;;;;;;;1.40;1.10;;;;;;;18.49;51.02;96102.00;10282915;28;20043;-45
2022/12/08 06:02:11;;;;;;;1.20;1.10;;;;;;;18.51;51.17;96093.59;10270396;28;20048;-43
2022/12/08 06:07:30;;;;;;;1.60;1.20;;;;;;;18.54;51.21;96106.38;10282519;28;20051;-46
2022/12/08 06:12:50;;;;;;;2.05;1.00;;;;;;;18.55;51.28;96108.75;10254881;28;20107;-44
2022/12/08 06:18:10;;;;;;;1.67;0.98;;;;;;;18.57;51.33;96103.03;10249778;28;20510;-43
2022/12/08 06:23:30;;;;;;;1.77;1.10;;;;;;;18.60;51.51;96107.75;10265078;28;20055;-45
2022/12/08 06:28:49;;;;;;;1.25;1.02;;;;;;;18.63;51.42;96109.00;10269756;28;20561;-45
2022/12/08 06:34:09;;;;;;;1.90;1.10;;;;;;;18.64;51.48;96107.88;10255621;28;20055;-43
2022/12/08 06:39:29;;;;;;;7.40;2.47;;;;;;;18.66;51.57;96103.72;10254020;28;20062;-46
2022/12/08 06:44:49;;;;;;;6.45;2.13;;;;;;;18.69;51.51;96113.06;10266055;28;20047;-46
2022/12/08 06:50:10;;;;;;;8.35;2.42;;;;;;;18.71;51.67;96108.91;10252386;28;20067;-44
2022/12/08 06:55:29;;;;;;;5.75;2.03;;;;;;;18.76;51.72;96113.31;10274351;28;20043;-45
2022/12/08 07:00:49;;;;;;;5.22;2.25;;;;;;;18.77;51.57;96112.94;10266825;28;20059;-47
2022/12/08 07:06:14;;;;;;;6.25;2.00;;;;;;;18.81;51.57;96115.03;10255776;28;20055;-43
2022/12/08 07:11:34;;;;;;;5.22;1.92;;;;;;;18.84;51.68;96120.53;10255333;28;20058;-45
2022/12/08 07:16:54;;;;;;;6.70;2.17;;;;;;;18.86;51.56;96112.13;10255348;28;20051;-46
2022/12/08 07:22:13;;;;;;;6.10;2.13;;;;;;;18.89;51.36;96125.69;10254936;28;20122;-43
2022/12/08 07:27:32;;;;;;;6.47;2.10;;;;;;;18.91;51.26;96117.28;10267824;28;20050;-45
2022/12/08 07:32:52;;;;;;;4.70;2.00;;;;;;;18.94;51.28;96119.31;10265301;28;20055;-44
2022/12/08 07:38:11;;;;;;;6.78;3.63;;;;;;;18.94;47.76;96113.91;10234135;28;20051;-46
2022/12/08 07:43:30;;;;;;;6.60;2.00;;;;;;;18.93;49.38;96106.91;10246924;28;20055;-44
2022/12/08 07:48:51;;;;;;;4.70;2.20;;;;;;;18.98;49.57;96114.03;10244474;28;20055;-45
2022/12/08 07:54:11;;;;;;;5.63;2.33;;;;;;;19.02;49.65;96113.00;10259213;28;20055;-45
2022/12/08 07:59:31;;;;;;;6.18;2.30;;;;;;;19.03;49.55;96114.56;10253635;28;20058;-46
2022/12/08 08:04:50;;;;;;;5.15;2.22;;;;;;;19.09;49.44;96117.84;10255826;28;20055;-45
2022/12/08 08:10:11;;;;;;;2.80;1.98;;;;;;;19.12;49.59;96119.88;10254868;28;20056;-45
2022/12/08 10:42:22;;;;;;;1.75;1.33;;;;;;;19.08;49.84;96035.28;10559673;23;20782;-45
2022/12/08 11:27:42;;;;;;;2.20;1.52;;;;;;;18.82;47.77;96005.94;10613343;22;20393;-47
2022/12/08 11:33:10;;;;;;;1.77;1.55;;;;;;;18.94;48.08;96014.06;10582925;28;20498;-48
2022/12/08 11:42:54;;;;;;;4.93;3.63;;;;;;;18.85;37.84;95999.88;10486983;27;20386;-46
2022/12/08 11:48:19;;;;;;;2.00;1.80;;;;;;;18.86;43.88;96006.88;10490688;28;20053;-45
2022/12/08 11:54:08;;;;;;;2.20;2.00;;;;;;;19.02;44.05;95985.38;10490717;28;20048;-45
2022/12/08 11:59:28;;;;;;;;;;;;;;;19.15;42.56;95990.41;10489010;28;20059;-46
2022/12/08 12:05:02;;;;;;;3.75;2.40;;;;;;;19.29;41.61;95986.53;10483811;28;19932;-47
2022/12/08 12:10:33;;;;;;;2.45;2.25;;;;;;;19.42;40.11;95981.88;10482559;28;20439;-47
2022/12/08 12:16:16;;;;;;;6.50;4.80;;;;;;;19.23;32.59;95980.59;10486103;28;20049;-46
2022/12/08 12:21:54;;;;;;;4.85;3.85;;;;;;;19.09;39.58;95975.56;10483458;28;20047;-46
2022/12/08 12:27:14;;;;;;;4.57;3.17;;;;;;;19.28;37.54;95968.75;10483963;28;20048;-46
2022/12/08 12:32:57;;;;;;;3.95;3.08;;;;;;;19.42;37.03;95961.03;10488836;28;20045;-46
2022/12/08 12:44:10;;;;;;;3.00;2.60;;;;;;;19.57;37.46;95951.44;10542831;28;20067;-46
2022/12/08 12:49:39;;;;;;;2.63;2.42;;;;;;;19.62;37.50;95953.09;10527117;28;20497;-46
2022/12/08 12:54:58;;;;;;;2.90;2.60;;;;;;;19.66;37.43;95951.28;10511828;28;20051;-45
2022/12/08 13:00:21;;;;;;;3.05;2.45;;;;;;;19.64;38.14;95945.44;10520523;28;20051;-45
2022/12/08 13:05:49;;;;;;;2.70;2.28;;;;;;;19.60;37.79;95944.53;10502847;28;20503;-46
2022/12/08 13:11:09;;;;;;;;;;;;;;;19.58;37.45;95941.41;10494145;28;20048;-44
2022/12/08 13:16:33;;;;;;;2.58;2.20;;;;;;;19.59;38.54;95932.97;10501687;28;19928;-47
2022/12/08 13:21:53;;;;;;;2.53;2.33;;;;;;;19.62;39.05;95934.19;10485354;28;20052;-45
2022/12/08 13:27:12;;;;;;;2.70;2.30;;;;;;;19.63;39.36;95933.06;10485887;28;20044;-45
2022/12/08 13:32:55;;;;;;;2.35;2.10;;;;;;;19.66;39.70;95933.16;10489195;28;20055;-45
2022/12/08 13:38:16;;;;;;;2.88;2.10;;;;;;;19.66;40.00;95933.16;10485226;28;20060;-46
2022/12/08 13:43:41;;;;;;;2.13;1.92;;;;;;;19.71;40.49;95940.22;10498606;28;20475;-45
2022/12/08 13:49:01;;;;;;;2.40;2.20;;;;;;;19.72;40.71;95936.44;10478278;28;20048;-48
2022/12/08 13:54:26;;;;;;;2.25;1.95;;;;;;;19.75;40.85;95941.13;10487714;28;20561;-45
2022/12/08 13:59:46;;;;;;;2.38;1.75;;;;;;;19.77;41.04;95930.75;10495155;28;20045;-45
2022/12/08 14:05:05;;;;;;;2.08;1.88;;;;;;;19.79;41.08;95935.81;10493642;28;20059;-46
2022/12/08 14:10:29;;;;;;;3.47;1.90;;;;;;;19.81;41.09;95944.38;10499293;28;20453;-44
2022/12/08 14:15:48;;;;;;;3.03;1.80;;;;;;;19.81;41.28;95938.97;10484018;28;20052;-45
2022/12/08 14:21:11;;;;;;;2.35;1.80;;;;;;;19.85;41.18;95945.25;10495578;28;20044;-45
2022/12/08 14:26:33;;;;;;;1.63;1.52;;;;;;;19.87;41.50;95942.97;10495962;28;20052;-45
2022/12/08 14:31:52;;;;;;;3.38;2.20;;;;;;;19.88;41.34;95944.56;10481005;28;20044;-48
2022/12/08 14:37:12;;;;;;;2.00;1.80;;;;;;;19.92;41.42;95942.75;10498261;28;20052;-46
2022/12/08 14:42:42;;;;;;;1.75;1.63;;;;;;;19.93;41.39;95936.19;10494390;28;20131;-46
2022/12/08 14:48:18;;;;;;;2.75;2.00;;;;;;;19.94;41.26;95929.66;10511276;28;20403;-46
2022/12/08 14:53:59;;;;;;;2.20;2.00;;;;;;;19.94;41.50;95933.13;10497380;28;20454;-47
2022/12/08 14:59:24;;;;;;;1.73;1.60;;;;;;;19.98;41.43;95932.47;10489707;28;20049;-49
2022/12/08 15:04:46;;;;;;;1.83;1.60;;;;;;;19.97;41.63;95931.66;10510670;28;20620;-46
2022/12/08 15:10:18;;;;;;;1.98;1.83;;;;;;;20.00;41.72;95930.19;10507009;28;20048;-46
2022/12/08 15:15:46;;;;;;;1.73;1.52;;;;;;;20.01;41.73;95932.53;10475554;28;20125;-45
2022/12/08 15:21:07;;;;;;;1.50;1.40;;;;;;;20.04;41.86;95933.75;10498222;28;20044;-46
2022/12/08 15:26:27;;;;;;;1.52;1.40;;;;;;;20.06;42.02;95942.31;10496672;28;20059;-48
2022/12/08 15:31:47;;;;;;;1.75;1.60;;;;;;;20.06;41.93;95937.69;10498471;28;20422;-48
2022/12/08 15:37:19;;;;;;;1.40;1.30;;;;;;;20.08;42.06;95929.22;10495966;28;20056;-47
2022/12/08 15:42:38;;;;;;;1.60;1.50;;;;;;;20.09;42.17;95933.50;10480523;28;20064;-45
2022/12/08 15:47:58;;;;;;;1.85;1.55;;;;;;;20.11;42.14;95937.44;10484455;28;20403;-47
2022/12/08 15:53:17;;;;;;;2.00;1.50;;;;;;;20.11;42.20;95933.91;10495809;28;20056;-46
2022/12/08 15:58:36;;;;;;;1.40;1.30;;;;;;;20.13;42.23;95928.94;10495633;28;20388;-46
2022/12/08 16:03:56;;;;;;;1.58;1.30;;;;;;;20.15;42.38;95926.72;10495943;28;20129;-50
2022/12/08 16:09:16;;;;;;;1.42;1.33;;;;;;;20.17;42.49;95934.44;10484643;28;20063;-46
2022/12/08 16:14:38;;;;;;;2.40;1.38;;;;;;;20.19;42.49;95935.69;10495501;28;20052;-47
2022/12/08 16:19:58;;;;;;;1.55;1.45;;;;;;;20.20;42.49;95945.34;10492711;28;20426;-47
2022/12/08 16:25:18;;;;;;;1.48;1.23;;;;;;;20.21;42.52;95941.53;10496833;28;20060;-48
2022/12/08 16:30:37;;;;;;;2.08;1.55;;;;;;;20.22;42.59;95937.69;10502772;28;20054;-49
2022/12/08 16:35:57;;;;;;;1.42;1.20;;;;;;;20.23;42.74;95941.97;10503212;28;20113;-46
2022/12/08 16:46:55;;;;;;;1.40;1.30;;;;;;;20.25;42.67;95953.22;10494413;28;20102;-48
2022/12/08 16:52:16;;;;;;;1.58;1.48;;;;;;;20.25;42.69;95947.81;10498134;28;20061;-48
2022/12/08 16:57:36;;;;;;;1.50;1.40;;;;;;;20.26;42.64;95957.47;10501777;28;20048;-46
2022/12/08 17:02:57;;;;;;;1.50;1.30;;;;;;;20.26;42.76;95952.06;10501750;28;20060;-46
2022/12/08 17:08:17;;;;;;;1.30;1.20;;;;;;;20.25;42.75;95950.53;10501090;28;20487;-47
2022/12/08 17:13:39;;;;;;;1.50;1.40;;;;;;;20.28;42.80;95947.09;10501569;28;20051;-45
2022/12/08 17:18:59;;;;;;;1.48;1.10;;;;;;;20.29;42.91;95942.50;10503804;28;20036;-47
2022/12/08 17:24:20;;;;;;;1.52;1.30;;;;;;;20.29;43.20;95940.56;10500968;28;20053;-46
2022/12/08 17:29:39;;;;;;;1.20;1.10;;;;;;;20.30;43.21;95944.06;10500978;28;20048;-46
2022/12/08 17:34:58;;;;;;;1.50;1.27;;;;;;;20.30;43.40;95939.41;10500521;28;20049;-45
2022/12/08 17:40:18;;;;;;;1.40;1.30;;;;;;;20.32;43.39;95936.38;10499293;28;20136;-45
2022/12/08 17:45:43;;;;;;;1.23;1.13;;;;;;;20.33;43.43;95941.44;10491483;28;20056;-45
2022/12/08 17:51:02;;;;;;;1.95;1.40;;;;;;;20.35;43.41;95946.50;10498931;28;20052;-47
2022/12/08 17:56:21;;;;;;;2.85;1.30;;;;;;;20.34;43.37;95958.44;10511877;28;20091;-47
2022/12/08 18:01:41;;;;;;;1.55;1.33;;;;;;;20.34;43.53;95955.75;10497039;28;20048;-47
2022/12/08 18:07:02;;;;;;;3.30;1.55;;;;;;;20.35;43.32;95951.91;10512212;28;20487;-44
2022/12/08 18:12:21;;;;;;;2.05;1.27;;;;;;;20.36;43.55;95948.06;10505977;28;20499;-45
2022/12/08 18:17:41;;;;;;;1.88;1.70;;;;;;;20.35;43.77;95947.28;10493975;28;20407;-48
2022/12/08 18:23:00;;;;;;;2.00;1.60;;;;;;;20.35;43.59;95941.09;10452053;28;20055;-47
2022/12/08 18:28:20;;;;;;;3.67;1.63;;;;;;;20.35;43.63;95944.56;10510163;28;20043;-48
2022/12/08 18:33:41;;;;;;;2.00;1.35;;;;;;;20.35;43.59;95939.16;10511438;28;20047;-46
2022/12/08 18:39:00;;;;;;;2.15;1.50;;;;;;;20.34;43.51;95931.41;10494698;28;20049;-47
2022/12/08 18:44:20;;;;;;;1.50;1.38;;;;;;;20.32;43.56;95920.91;10497043;28;20110;-47
2022/12/08 18:49:39;;;;;;;1.40;1.30;;;;;;;20.33;43.54;95921.72;10494757;28;20049;-45
2022/12/08 18:54:59;;;;;;;1.70;1.60;;;;;;;20.32;43.69;95914.75;10489111;28;20098;-46
2022/12/08 19:00:19;;;;;;;1.65;1.50;;;;;;;20.32;43.72;95920.91;10508839;28;20047;-46
2022/12/08 19:05:39;;;;;;;1.55;1.45;;;;;;;20.30;43.70;95922.41;10496954;28;20102;-45
2022/12/08 19:10:58;;;;;;;3.90;1.48;;;;;;;20.29;43.63;95921.63;10496380;28;20056;-46
2022/12/08 19:16:18;;;;;;;1.90;1.67;;;;;;;20.28;43.94;95922.75;10491948;28;20060;-46
2022/12/08 19:21:38;;;;;;;2.00;1.63;;;;;;;20.28;43.88;95921.97;10494247;28;20056;-47
2022/12/08 19:26:57;;;;;;;1.90;1.65;;;;;;;20.27;43.97;95920.44;10496311;28;20106;-46
2022/12/08 19:32:16;;;;;;;3.13;1.48;;;;;;;20.26;44.05;95925.03;10496287;28;20053;-46
2022/12/08 19:37:36;;;;;;;2.03;1.60;;;;;;;20.25;44.21;95931.59;10499483;28;20419;-49
2022/12/08 19:48:33;;;;;;;1.98;1.70;;;;;;;20.22;44.41;95920.69;10494063;28;20098;-44
2022/12/08 19:53:53;;;;;;;3.42;1.65;;;;;;;20.21;44.58;95936.13;10495293;28;20415;-46
2022/12/08 19:59:14;;;;;;;3.55;1.70;;;;;;;20.20;44.79;95929.13;10491592;28;20045;-47
2022/12/08 20:04:34;;;;;;;7.07;2.00;;;;;;;20.20;44.85;95921.03;10504146;28;20045;-53
2022/12/08 20:09:53;;;;;;;5.93;1.95;;;;;;;20.18;45.01;95909.78;10503270;28;20041;-44
2022/12/08 20:15:13;;;;;;;4.97;1.75;;;;;;;20.18;45.27;95920.59;10503523;28;20052;-45
2022/12/08 20:20:33;;;;;;;3.13;2.30;;;;;;;20.17;45.47;95912.81;10503471;28;20390;-48
2022/12/08 20:25:52;;;;;;;4.00;2.45;;;;;;;20.17;45.34;95902.81;10516831;28;20040;-47
2022/12/08 20:31:24;;;;;;;5.80;2.50;;;;;;;20.13;45.37;95907.31;10502284;28;20048;-45
2022/12/08 20:36:44;;;;;;;2.45;2.00;;;;;;;20.11;45.33;95913.09;10501150;28;20052;-47
2022/12/08 20:42:03;;;;;;;5.50;2.53;;;;;;;20.11;45.29;95920.41;10501147;28;20052;-46
2022/12/08 20:47:23;;;;;;;5.00;2.50;;;;;;;20.09;45.26;95928.88;10502286;28;20052;-47
2022/12/08 20:52:42;;;;;;;3.70;2.40;;;;;;;20.07;45.57;95925.75;10502059;28;20049;-46
2022/12/08 20:58:01;;;;;;;4.50;2.58;;;;;;;20.07;45.71;95930.34;10513095;28;20044;-45
2022/12/08 21:03:21;;;;;;;5.32;2.78;;;;;;;20.05;45.65;95932.63;10500433;28;20059;-45
2022/12/08 21:08:41;;;;;;;6.38;2.78;;;;;;;20.05;45.77;95932.63;10513891;28;20094;-47
2022/12/08 21:14:00;;;;;;;4.13;2.63;;;;;;;20.03;45.75;95929.47;10497152;28;20048;-47
2022/12/08 21:19:21;;;;;;;3.78;2.33;;;;;;;20.02;45.78;95928.69;10500815;28;20086;-47
2022/12/08 21:24:40;;;;;;;2.90;2.60;;;;;;;20.01;45.83;95923.63;10500978;28;20052;-46
2022/12/08 21:29:59;;;;;;;3.92;2.67;;;;;;;19.99;45.85;95917.78;10500204;28;20504;-48
2022/12/08 21:35:19;;;;;;;3.05;2.75;;;;;;;19.98;45.92;95921.66;10514009;28;20047;-46
2022/12/08 21:40:38;;;;;;;3.28;2.55;;;;;;;19.95;45.97;95918.50;10499839;28;20056;-48
2022/12/08 21:45:58;;;;;;;3.97;2.50;;;;;;;19.93;45.83;95915.38;10485088;28;20531;-47
2022/12/08 21:51:18;;;;;;;4.43;2.90;;;;;;;19.91;45.71;95914.13;10499951;28;20644;-46
2022/12/08 21:56:38;;;;;;;3.17;2.72;;;;;;;19.89;45.88;95917.16;10513374;28;20402;-46
2022/12/08 22:01:58;;;;;;;3.78;2.70;;;;;;;19.88;45.90;95917.53;10499873;28;20102;-47
2022/12/08 22:07:18;;;;;;;3.17;2.83;;;;;;;19.86;45.92;95917.88;10499232;28;20049;-46
2022/12/08 22:12:38;;;;;;;3.53;2.50;;;;;;;19.85;46.00;95919.00;10499208;28;20056;-46
2022/12/08 22:17:58;;;;;;;3.00;2.70;;;;;;;19.85;45.97;95926.31;10512397;28;20044;-48
2022/12/08 22:23:18;;;;;;;3.92;2.65;;;;;;;19.82;45.87;95929.75;10497748;28;20060;-48
2022/12/08 22:28:39;;;;;;;4.47;2.95;;;;;;;19.81;46.07;95928.16;10498275;28;20457;-46
2022/12/08 22:33:59;;;;;;;3.15;2.65;;;;;;;19.79;46.07;95930.41;10498382;28;20061;-48
2022/12/08 22:39:18;;;;;;;3.35;2.60;;;;;;;19.75;45.98;95928.41;10497693;28;20064;-48
2022/12/08 22:44:38;;;;;;;3.20;2.80;;;;;;;19.74;46.02;95929.53;10511304;28;20075;-45
2022/12/08 22:49:57;;;;;;;3.40;2.72;;;;;;;19.72;46.03;95948.03;10496740;28;20480;-46
2022/12/08 22:55:16;;;;;;;3.33;2.90;;;;;;;19.71;46.10;95945.63;10511049;28;20484;-46
2022/12/08 23:00:36;;;;;;;4.40;2.95;;;;;;;19.69;46.16;95951.38;10497259;28;20058;-47
2022/12/08 23:05:56;;;;;;;3.60;2.88;;;;;;;19.68;45.96;95949.81;10489923;28;20094;-46
2022/12/08 23:11:16;;;;;;;5.88;2.85;;;;;;;19.67;45.96;95950.16;10496922;28;20048;-48
2022/12/08 23:16:35;;;;;;;3.15;2.85;;;;;;;19.64;46.00;95950.84;10497084;28;20947;-48
2022/12/08 23:21:55;;;;;;;4.30;2.88;;;;;;;19.64;46.11;95931.91;10496411;28;20404;-47
2022/12/08 23:27:14;;;;;;;4.00;2.80;;;;;;;19.62;46.06;95944.97;10510175;28;20044;-46
2022/12/08 23:32:34;;;;;;;6.38;2.83;;;;;;;19.60;46.05;95939.16;10496836;28;20060;-46
2022/12/08 23:37:53;;;;;;;4.80;2.80;;;;;;;19.60;46.05;95933.75;10496339;28;20052;-47
2022/12/08 23:43:12;;;;;;;3.63;3.00;;;;;;;19.55;46.02;95924.75;10484176;28;20059;-48
2022/12/08 23:48:33;;;;;;;3.58;2.67;;;;;;;19.55;46.08;95930.16;10496282;28;20041;-45
2022/12/08 23:53:53;;;;;;;3.63;2.95;;;;;;;19.54;46.02;95923.19;10492460;28;20052;-46
2022/12/08 23:59:12;;;;;;;3.30;2.75;;;;;;;19.51;45.91;95929.28;10488204;28;20080;-46
